Time;durP1;ratioP1;P1;durP2;ratioP2;P2;SDS_P1;SDS_P2;PMS_P1;PMS_P2;Temp;Humidity;BMP_temperature;BMP_pressure;BME280_temperature;BME280_humidity;BME280_pressure;Samples;Min_cycle;Max_cycle;Signal;HPM_P1;HPM_P2
2022/01/26 00:08:10;;;;;;;;;;;;;;;;;;;;;
2022/01/26 00:14:12;;;;;;;;;;;;;;;;;;;;;
2022/01/26 00:17:02;;;;;;;;;;;;;;;5.51;62.50;100982.31;4365803;32;34468;-78
2022/01/26 00:43:07;;;;;;;;;;;;;;;5.03;64.53;100981.47;4390027;32;34339;-78
2022/01/26 00:48:37;;;;;;;;;;;;;;;5.04;64.53;100980.56;4416837;32;33692;-78
2022/01/26 01:02:12;;;;;;;;;;;;;;;5.03;64.19;100983.25;4425933;32;34688;-80
2022/01/26 01:05:27;;;;;;;;;;;;;;;5.14;63.80;100992.31;4423450;32;35757;-78
2022/01/26 01:21:02;;;;;;;;;;;;;;;;;;;;;
2022/01/26 01:39:34;;;;;;;;;;;;;;;4.35;66.78;100978.06;4350332;32;33229;-78
2022/01/26 01:52:02;;;;;;;;;;;;;;;4.07;68.12;100968.03;4308001;33;33646;-78
2022/01/26 01:54:40;;;;;;;;;;;;;;;;;;;;;
2022/01/26 02:00:35;;;;;;;;;;;;;;;;;;;;;
2022/01/26 02:10:28;;;;;;;;;;;;;;;;;;;;;
2022/01/26 02:13:25;;;;;;;;;;;;;;;4.53;66.04;100963.94;4332274;33;34836;-78
2022/01/26 03:06:34;;;;;;;;;;;;;;;4.17;66.89;100945.56;4435789;32;33377;-79
2022/01/26 03:09:40;;;;;;;;;;;;;;;4.48;65.76;100951.00;4450334;32;35229;-79
2022/01/26 03:16:14;;;;;;;;;;;;;;;4.74;64.74;100952.28;4448899;32;33346;-79
2022/01/26 03:36:21;;;;;;;;;;;;;;;4.76;63.97;100948.66;4445266;32;35484;-78
2022/01/26 03:38:57;;;;;;;;;;;;;;;4.87;63.66;100946.31;4424061;32;31712;-79
2022/01/26 03:44:03;;;;;;;;;;;;;;;4.83;63.88;100950.00;4460768;32;35419;-79
2022/01/26 03:46:31;;;;;;;;;;;;;;;5.05;63.00;100947.09;4433952;32;34726;-79
2022/01/26 03:48:59;;;;;;;;;;;;;;;4.86;63.46;100949.88;4434197;32;32369;-79
2022/01/26 03:51:27;;;;;;;;;;;;;;;5.00;63.12;100952.63;4446492;32;34464;-78
2022/01/26 03:53:54;;;;;;;;;;;;;;;5.19;62.21;100948.06;4446689;32;35590;-79
2022/01/26 03:56:22;;;;;;;;;;;;;;;5.13;62.43;100952.81;4460097;32;34651;-79
2022/01/26 03:58:49;;;;;;;;;;;;;;;5.10;62.45;100951.19;4446719;32;33606;-79
2022/01/26 04:01:16;;;;;;;;;;;;;;;5.00;62.97;100954.41;4446972;32;34226;-79
2022/01/26 04:03:44;;;;;;;;;;;;;;;5.06;62.87;100956.72;4446485;32;33153;-79
2022/01/26 04:06:12;;;;;;;;;;;;;;;4.91;63.51;100950.47;4460825;32;33793;-78
2022/01/26 04:08:42;;;;;;;;;;;;;;;4.97;63.01;100947.53;4421121;32;31575;-79
2022/01/26 04:13:57;;;;;;;;;;;;;;;4.61;64.08;100943.34;4446252;32;35468;-78
2022/01/26 04:16:26;;;;;;;;;;;;;;;4.58;64.28;100938.19;4446927;32;34020;-79
2022/01/26 04:18:55;;;;;;;;;;;;;;;5.06;62.82;100933.84;4433666;32;32434;-79
2022/01/26 04:21:36;;;;;;;;;;;;;;;5.00;62.90;100938.59;4432524;32;34856;-80
2022/01/26 04:24:12;;;;;;;;;;;;;;;4.54;64.46;100932.22;4435494;32;35737;-78
2022/01/26 04:29:13;;;;;;;;;;;;;;;5.26;61.90;100932.78;4432939;32;32766;-79
2022/01/26 04:31:40;;;;;;;;;;;;;;;5.34;61.52;100936.69;4447689;32;33571;-79
2022/01/26 04:34:08;;;;;;;;;;;;;;;5.09;62.20;100930.19;4434082;32;35360;-78
2022/01/26 04:39:29;;;;;;;;;;;;;;;5.28;61.51;100923.81;4448299;32;32255;-79
2022/01/26 04:42:05;;;;;;;;;;;;;;;5.38;61.19;100930.28;4460890;32;33644;-78
2022/01/26 04:44:39;;;;;;;;;;;;;;;5.25;61.51;100933.69;4447616;32;35903;-79
2022/01/26 04:47:07;;;;;;;;;;;;;;;4.95;62.58;100930.94;4447379;32;33903;-78
2022/01/26 04:49:34;;;;;;;;;;;;;;;5.18;61.59;100938.44;4460179;32;33709;-78
2022/01/26 04:52:02;;;;;;;;;;;;;;;5.07;62.03;100926.78;4460139;32;33572;-79
2022/01/26 04:54:30;;;;;;;;;;;;;;;4.65;63.08;100935.19;4446657;32;35358;-79
2022/01/26 04:56:57;;;;;;;;;;;;;;;4.67;63.31;100930.69;4446393;32;35481;-78
2022/01/26 04:59:24;;;;;;;;;;;;;;;4.74;62.70;100928.56;4460552;32;33211;-78
2022/01/26 05:01:52;;;;;;;;;;;;;;;4.87;62.47;100929.63;4460755;32;33646;-79
2022/01/26 05:04:19;;;;;;;;;;;;;;;4.78;62.72;100925.69;4433140;32;35381;-78
2022/01/26 05:06:47;;;;;;;;;;;;;;;5.05;61.88;100931.28;4459934;32;34298;-79
2022/01/26 05:09:14;;;;;;;;;;;;;;;5.14;61.49;100920.22;4433258;32;34039;-78
2022/01/26 05:11:43;;;;;;;;;;;;;;;5.06;61.60;100923.28;4460766;32;33728;-79
2022/01/26 05:14:11;;;;;;;;;;;;;;;5.07;61.72;100926.78;4446526;32;35189;-78
2022/01/26 05:16:38;;;;;;;;;;;;;;;5.24;60.98;100922.28;4446214;32;33598;-79
2022/01/26 05:19:06;;;;;;;;;;;;;;;5.19;60.98;100923.50;4460488;32;33219;-77
2022/01/26 05:21:34;;;;;;;;;;;;;;;5.22;60.79;100918.91;4433190;32;33993;-78
2022/01/26 05:24:04;;;;;;;;;;;;;;;5.34;60.45;100926.13;4433551;32;35088;-78
2022/01/26 05:26:32;;;;;;;;;;;;;;;5.50;59.82;100922.56;4433966;32;35034;-77
2022/01/26 05:28:59;;;;;;;;;;;;;;;5.60;59.12;100925.53;4445919;32;34466;-79
2022/01/26 05:31:26;;;;;;;;;;;;;;;5.44;59.48;100919.41;4446218;32;34627;-77
2022/01/26 05:33:54;;;;;;;;;;;;;;;5.39;59.66;100921.47;4422424;32;34625;-77
2022/01/26 05:36:21;;;;;;;;;;;;;;;5.43;59.56;100919.47;4439458;32;34126;-78
2022/01/26 05:38:49;;;;;;;;;;;;;;;5.51;59.42;100923.41;4427941;32;33125;-77
2022/01/26 05:41:16;;;;;;;;;;;;;;;5.46;59.56;100925.44;4428201;32;33318;-78
2022/01/26 05:43:44;;;;;;;;;;;;;;;5.46;59.62;100920.16;4430223;32;35797;-77
2022/01/26 05:46:18;;;;;;;;;;;;;;;5.47;59.57;100926.31;4427927;32;34687;-79
2022/01/26 05:48:49;;;;;;;;;;;;;;;5.51;59.46;100924.25;4428974;32;33297;-79
2022/01/26 05:51:17;;;;;;;;;;;;;;;5.43;59.92;100934.38;4428797;32;33734;-79
2022/01/26 05:53:44;;;;;;;;;;;;;;;5.49;59.72;100923.50;4428634;32;35189;-79
2022/01/26 05:56:12;;;;;;;;;;;;;;;5.31;60.49;100938.63;4429411;32;34522;-79
2022/01/26 05:58:39;;;;;;;;;;;;;;;5.40;60.13;100931.09;4427100;32;34079;-79
2022/01/26 06:01:14;;;;;;;;;;;;;;;5.37;60.51;100933.88;4429061;32;33793;-78
2022/01/26 06:03:42;;;;;;;;;;;;;;;5.39;60.46;100941.72;4428460;32;34591;-78
2022/01/26 06:06:09;;;;;;;;;;;;;;;5.48;60.24;100935.00;4432374;32;35060;-79
2022/01/26 06:08:37;;;;;;;;;;;;;;;5.13;61.42;100937.88;4428605;32;33393;-79
2022/01/26 06:11:04;;;;;;;;;;;;;;;5.10;61.78;100943.28;4426961;32;33341;-78
2022/01/26 06:13:32;;;;;;;;;;;;;;;5.18;61.44;100940.25;4428601;32;35250;-78
2022/01/26 06:15:59;;;;;;;;;;;;;;;5.25;61.36;100938.97;4426504;32;34245;-78
2022/01/26 06:18:27;;;;;;;;;;;;;;;5.16;62.00;100944.72;4433443;32;32842;-79
2022/01/26 06:20:55;;;;;;;;;;;;;;;5.27;61.46;100948.50;4431436;32;33903;-78
2022/01/26 06:23:26;;;;;;;;;;;;;;;5.00;62.47;100951.78;4439675;32;35267;-78
2022/01/26 06:25:55;;;;;;;;;;;;;;;4.88;63.01;100945.37;4430241;32;35401;-79
2022/01/26 06:28:23;;;;;;;;;;;;;;;4.93;62.88;100953.03;4413916;32;31736;-79
2022/01/26 06:30:52;;;;;;;;;;;;;;;4.91;62.91;100955.75;4430210;32;33830;-78
2022/01/26 06:33:21;;;;;;;;;;;;;;;5.10;62.49;100953.81;4434834;32;36749;-79
2022/01/26 06:35:48;;;;;;;;;;;;;;;5.26;61.87;100948.59;4442161;32;33993;-78
2022/01/26 06:38:15;;;;;;;;;;;;;;;5.14;62.29;100955.37;4441925;32;33204;-79
2022/01/26 06:40:44;;;;;;;;;;;;;;;5.34;61.67;100952.53;4429281;32;33441;-79
2022/01/26 06:43:14;;;;;;;;;;;;;;;5.26;61.80;100951.25;4429190;32;35391;-78
2022/01/26 06:45:48;;;;;;;;;;;;;;;5.28;61.90;100946.72;4418763;32;34764;-79
2022/01/26 06:50:59;;;;;;;;;;;;;;;5.43;61.44;100957.28;4442097;32;34367;-78
2022/01/26 06:53:26;;;;;;;;;;;;;;;5.49;61.03;100952.53;4441602;32;33917;-79
2022/01/26 06:55:54;;;;;;;;;;;;;;;5.19;62.13;100949.88;4416617;32;33024;-79
2022/01/26 06:58:21;;;;;;;;;;;;;;;5.38;61.51;100951.41;4442325;32;33367;-78
2022/01/26 07:00:49;;;;;;;;;;;;;;;5.37;61.67;100948.87;4429616;32;35000;-79
2022/01/26 07:03:25;;;;;;;;;;;;;;;5.02;62.62;100953.41;4423008;32;35530;-79
2022/01/26 07:06:20;;;;;;;;;;;;;;;5.43;61.66;100945.87;4441203;32;34007;-79
2022/01/26 07:08:56;;;;;;;;;;;;;;;5.33;61.92;100947.31;4442734;32;32659;-79
2022/01/26 07:11:23;;;;;;;;;;;;;;;5.48;61.40;100949.97;4443936;32;33458;-79
2022/01/26 07:13:57;;;;;;;;;;;;;;;5.45;61.46;100942.22;4430144;32;34500;-79
2022/01/26 07:21:57;;;;;;;;;;;;;;;5.46;61.46;100948.38;4442748;32;34441;-78
2022/01/26 07:24:24;;;;;;;;;;;;;;;5.45;61.62;100947.50;4442360;32;36117;-79
2022/01/26 07:26:54;;;;;;;;;;;;;;;5.38;61.76;100950.56;4443565;32;35474;-79
2022/01/26 07:29:24;;;;;;;;;;;;;;;5.47;61.32;100947.44;4442358;32;32057;-78
2022/01/26 07:31:52;;;;;;;;;;;;;;;5.13;62.44;100940.50;4442294;32;34375;-76
2022/01/26 07:34:22;;;;;;;;;;;;;;;4.83;63.45;100939.47;4442273;32;35855;-78
2022/01/26 07:36:52;;;;;;;;;;;;;;;5.14;62.60;100936.06;4441925;32;32910;-78
2022/01/26 07:39:30;;;;;;;;;;;;;;;5.13;62.41;100931.72;4438610;32;33331;-78
2022/01/26 07:41:59;;;;;;;;;;;;;;;5.42;61.59;100938.91;4442799;32;34653;-78
2022/01/26 07:44:27;;;;;;;;;;;;;;;5.16;62.34;100944.72;4443724;32;35110;-78
2022/01/26 07:46:54;;;;;;;;;;;;;;;5.29;62.11;100949.25;4441841;32;34347;-78
2022/01/26 07:49:22;;;;;;;;;;;;;;;5.09;62.47;100946.84;4441615;32;33840;-78
2022/01/26 07:51:51;;;;;;;;;;;;;;;5.23;62.03;100940.84;4441984;32;34050;-77
2022/01/26 07:54:19;;;;;;;;;;;;;;;4.86;63.09;100943.75;4443139;32;35730;-78
2022/01/26 07:56:47;;;;;;;;;;;;;;;4.94;62.86;100946.81;4442058;32;33109;-78
2022/01/26 07:59:14;;;;;;;;;;;;;;;4.60;64.08;100944.25;4429188;32;33165;-80
2022/01/26 08:01:42;;;;;;;;;;;;;;;4.93;63.04;100948.63;4416077;32;35194;-77
2022/01/26 08:04:10;;;;;;;;;;;;;;;4.95;62.84;100945.87;4415519;32;34364;-78
2022/01/26 08:06:40;;;;;;;;;;;;;;;4.94;62.87;100944.19;4441555;32;34730;-77
2022/01/26 08:09:07;;;;;;;;;;;;;;;5.29;61.98;100938.72;4441822;32;31620;-78
2022/01/26 08:11:35;;;;;;;;;;;;;;;5.02;62.68;100945.50;4441992;32;34164;-79
2022/01/26 08:14:03;;;;;;;;;;;;;;;5.08;62.28;100941.69;4428926;32;35491;-79
2022/01/26 08:16:30;;;;;;;;;;;;;;;4.93;62.75;100946.00;4428971;32;34804;-78
2022/01/26 08:18:58;;;;;;;;;;;;;;;5.22;62.04;100949.69;4441697;32;34762;-78
2022/01/26 08:21:26;;;;;;;;;;;;;;;4.88;62.67;100939.22;4416377;32;34879;-79
2022/01/26 08:24:02;;;;;;;;;;;;;;;5.44;61.33;100940.53;4441950;32;34683;-78
2022/01/26 08:26:43;;;;;;;;;;;;;;;4.97;62.65;100949.28;4442077;32;34678;-78
2022/01/26 08:29:17;;;;;;;;;;;;;;;5.54;60.78;100945.22;4444332;32;32884;-79
2022/01/26 08:31:45;;;;;;;;;;;;;;;5.17;61.72;100938.56;4445606;32;34094;-79
2022/01/26 08:34:13;;;;;;;;;;;;;;;5.10;nan;100945.91;4431186;32;35837;-79
2022/01/26 08:36:40;;;;;;;;;;;;;;;5.63;60.77;100942.06;4444111;32;34769;-79
2022/01/26 08:39:08;;;;;;;;;;;;;;;5.39;61.32;100953.13;4430423;32;31158;-79
2022/01/26 08:41:36;;;;;;;;;;;;;;;5.61;60.86;100951.00;4445186;32;34064;-80
2022/01/26 08:44:03;;;;;;;;;;;;;;;5.53;60.87;100950.56;4430461;32;35101;-79
2022/01/26 08:46:31;;;;;;;;;;;;;;;5.69;60.47;100954.06;4445030;32;34054;-78
2022/01/26 08:48:59;;;;;;;;;;;;;;;5.48;60.57;100947.31;4431422;32;33764;-79
2022/01/26 08:51:26;;;;;;;;;;;;;;;5.52;60.71;100951.50;4445246;32;33521;-80
2022/01/26 08:53:54;;;;;;;;;;;;;;;5.59;60.72;100953.72;4443233;32;36368;-79
2022/01/26 08:56:21;;;;;;;;;;;;;;;5.62;60.32;100958.84;4443789;32;35084;-79
2022/01/26 08:58:49;;;;;;;;;;;;;;;6.00;59.35;100962.84;4443465;32;34598;-79
2022/01/26 09:01:17;;;;;;;;;;;;;;;5.83;60.08;100962.94;4444914;32;34439;-78
2022/01/26 09:03:45;;;;;;;;;;;;;;;6.03;59.33;100967.09;4443640;32;34546;-79
2022/01/26 09:06:13;;;;;;;;;;;;;;;6.00;59.40;100960.22;4430964;32;34451;-79
2022/01/26 09:08:43;;;;;;;;;;;;;;;6.46;58.05;100967.19;4442964;32;33403;-79
2022/01/26 09:11:10;;;;;;;;;;;;;;;6.12;59.40;100964.78;4442797;32;33959;-79
2022/01/26 09:13:38;;;;;;;;;;;;;;;6.06;58.95;100973.03;4444337;32;35499;-79
2022/01/26 09:16:07;;;;;;;;;;;;;;;5.99;59.57;100966.44;4442023;32;34406;-79
2022/01/26 09:18:47;;;;;;;;;;;;;;;6.19;58.61;100963.50;4429882;32;33043;-79
2022/01/26 09:21:16;;;;;;;;;;;;;;;5.90;59.45;100953.75;4443933;32;34302;-79
2022/01/26 09:23:44;;;;;;;;;;;;;;;5.95;59.36;100951.69;4430634;32;35365;-79
2022/01/26 09:26:11;;;;;;;;;;;;;;;5.89;59.64;100944.09;4443533;32;35361;-79
2022/01/26 09:28:39;;;;;;;;;;;;;;;6.17;58.91;100946.84;4431165;32;33698;-78
2022/01/26 09:31:06;;;;;;;;;;;;;;;6.31;58.39;100946.91;4445428;32;34356;-79
2022/01/26 09:33:34;;;;;;;;;;;;;;;6.37;58.17;100940.44;4453429;32;35976;-79
2022/01/26 09:36:02;;;;;;;;;;;;;;;5.89;59.27;100951.19;4445877;32;34947;-78
2022/01/26 09:38:29;;;;;;;;;;;;;;;6.04;59.12;100943.22;4432842;32;32756;-78
2022/01/26 09:40:57;;;;;;;;;;;;;;;6.32;58.42;100942.47;4446771;32;34584;-79
2022/01/26 09:43:24;;;;;;;;;;;;;;;6.16;58.95;100939.88;4433059;32;34940;-79
2022/01/26 09:45:52;;;;;;;;;;;;;;;6.03;59.33;100948.59;4433265;32;34805;-80
2022/01/26 09:48:20;;;;;;;;;;;;;;;6.12;58.82;100938.37;4455697;32;31198;-78
2022/01/26 09:50:54;;;;;;;;;;;;;;;6.01;59.33;100939.91;4433403;32;33373;-79
2022/01/26 09:53:27;;;;;;;;;;;;;;;6.13;58.91;100944.47;4433880;32;35329;-79
2022/01/26 09:55:54;;;;;;;;;;;;;;;5.86;60.03;100933.72;4445645;32;34573;-79
2022/01/26 09:58:22;;;;;;;;;;;;;;;6.09;58.68;100946.47;4444584;32;32340;-78
2022/01/26 10:00:56;;;;;;;;;;;;;;;6.26;58.71;100932.28;4430754;32;33813;-78
2022/01/26 10:03:27;;;;;;;;;;;;;;;6.21;58.50;100929.91;4432034;32;34840;-79
2022/01/26 10:05:56;;;;;;;;;;;;;;;6.13;58.76;100934.78;4429348;32;35683;-79
2022/01/26 10:19:06;;;;;;;;;;;;;;;6.55;57.57;100923.47;4458376;32;33255;-79
2022/01/26 10:21:44;;;;;;;;;;;;;;;6.37;57.93;100916.62;4431854;32;33523;-78
2022/01/26 10:24:12;;;;;;;;;;;;;;;6.40;57.84;100913.81;4459391;32;35921;-79
2022/01/26 10:26:39;;;;;;;;;;;;;;;6.49;57.84;100924.69;4459287;32;34080;-79
2022/01/26 10:29:07;;;;;;;;;;;;;;;6.25;58.45;100926.13;4445076;32;32168;-80
2022/01/26 10:31:36;;;;;;;;;;;;;;;6.70;56.97;100930.50;4445464;32;34961;-79
2022/01/26 10:34:12;;;;;;;;;;;;;;;7.25;55.67;100928.78;4445550;32;35896;-79
2022/01/26 10:36:42;;;;;;;;;;;;;;;6.87;56.20;100923.22;4426857;32;34816;-80
2022/01/26 10:39:14;;;;;;;;;;;;;;;7.12;56.26;100918.13;4431374;32;33823;-79
2022/01/26 10:41:43;;;;;;;;;;;;;;;6.85;55.82;100919.84;4458979;32;34947;-79
2022/01/26 10:44:11;;;;;;;;;;;;;;;7.07;56.02;100919.38;4445387;32;35338;-79
2022/01/26 10:46:40;;;;;;;;;;;;;;;7.14;55.91;100918.00;4444411;32;35372;-79
2022/01/26 10:52:03;;;;;;;;;;;;;;;7.34;55.27;100907.87;4444778;32;33768;-79
2022/01/26 10:57:03;;;;;;;;;;;;;;;7.21;55.30;100903.47;4445578;32;35268;-78
2022/01/26 10:59:35;;;;;;;;;;;;;;;7.02;55.67;100906.41;4445362;32;33171;-79
2022/01/26 11:02:06;;;;;;;;;;;;;;;7.36;55.25;100900.69;4444802;32;33737;-78
2022/01/26 11:04:36;;;;;;;;;;;;;;;6.81;56.04;100904.25;4419058;32;33661;-79
2022/01/26 11:07:04;;;;;;;;;;;;;;;7.04;55.99;100903.66;4444543;32;35575;-79
2022/01/26 11:09:33;;;;;;;;;;;;;;;7.30;55.07;100900.25;4418308;32;33395;-79
2022/01/26 11:12:05;;;;;;;;;;;;;;;7.02;55.29;100897.63;4444541;32;33593;-79
2022/01/26 11:14:45;;;;;;;;;;;;;;;7.00;55.78;100896.88;4444316;32;34863;-79
2022/01/26 11:17:33;;;;;;;;;;;;;;;6.98;55.38;100894.31;4423024;32;34557;-80
2022/01/26 11:20:03;;;;;;;;;;;;;;;6.90;55.31;100887.81;4442029;32;31320;-79
2022/01/26 11:22:32;;;;;;;;;;;;;;;7.15;54.89;100894.13;4431005;32;32467;-78
2022/01/26 11:25:10;;;;;;;;;;;;;;;6.52;56.57;100897.22;4459237;32;35137;-79
2022/01/26 11:27:39;;;;;;;;;;;;;;;6.75;55.82;100896.69;4459583;32;34396;-79
2022/01/26 11:30:25;;;;;;;;;;;;;;;6.98;55.50;100901.41;4459621;32;33052;-80
2022/01/26 11:32:58;;;;;;;;;;;;;;;6.73;56.14;100906.50;4444430;32;35013;-79
2022/01/26 11:35:29;;;;;;;;;;;;;;;7.07;55.93;100890.25;4444914;32;36890;-79
2022/01/26 11:38:03;;;;;;;;;;;;;;;7.34;55.48;100888.50;4444523;32;33158;-79
2022/01/26 11:46:30;;;;;;;;;;;;;;;7.44;55.13;100882.53;4445774;32;35031;-79
2022/01/26 11:49:02;;;;;;;;;;;;;;;6.94;55.63;100889.31;4443780;32;35307;-79
2022/01/26 11:51:39;;;;;;;;;;;;;;;7.33;54.53;100889.44;4457393;32;33372;-79
2022/01/26 11:54:11;;;;;;;;;;;;;;;7.46;54.30;100887.72;4443449;32;32205;-79
2022/01/26 11:56:39;;;;;;;;;;;;;;;7.35;54.36;100892.88;4443836;32;35783;-79
2022/01/26 11:59:21;;;;;;;;;;;;;;;7.45;54.28;100884.22;4418420;32;33298;-79
2022/01/26 12:01:56;;;;;;;;;;;;;;;7.50;54.27;100882.16;4444393;32;33407;-79
2022/01/26 12:04:25;;;;;;;;;;;;;;;7.44;53.92;100882.53;4445878;32;34245;-79
2022/01/26 12:07:00;;;;;;;;;;;;;;;7.70;53.57;100879.03;4432716;32;35310;-79
2022/01/26 12:09:28;;;;;;;;;;;;;;;7.54;53.60;100872.22;4446752;32;36278;-79
2022/01/26 12:11:56;;;;;;;;;;;;;;;7.65;53.28;100875.00;4445020;32;33123;-80
2022/01/26 12:14:23;;;;;;;;;;;;;;;7.29;54.31;100870.25;4432637;32;32560;-79
2022/01/26 12:16:54;;;;;;;;;;;;;;;7.73;53.12;100864.75;4445473;32;34740;-79
2022/01/26 12:19:32;;;;;;;;;;;;;;;7.74;53.01;100862.00;4446149;32;35278;-79
2022/01/26 12:36:28;;;;;;;;;;;;;;;7.60;53.58;100848.81;4446019;32;35008;-80
2022/01/26 12:38:57;;;;;;;;;;;;;;;7.64;53.32;100849.47;4448469;32;34881;-79
2022/01/26 12:43:53;;;;;;;;;;;;;;;7.49;53.35;100837.22;4432413;32;32912;-79
2022/01/26 12:46:23;;;;;;;;;;;;;;;7.45;53.73;100844.50;4460649;32;34200;-79
2022/01/26 12:48:51;;;;;;;;;;;;;;;7.41;53.93;100843.03;4446510;32;34566;-79
2022/01/26 12:51:19;;;;;;;;;;;;;;;7.72;52.83;100832.12;4433367;32;34538;-79
2022/01/26 12:53:55;;;;;;;;;;;;;;;7.41;53.92;100836.87;4460538;32;32537;-78
2022/01/26 12:56:28;;;;;;;;;;;;;;;6.94;54.53;100834.63;4423680;32;35031;-79
2022/01/26 12:59:00;;;;;;;;;;;;;;;7.00;54.94;100831.56;4432503;32;35060;-79
2022/01/26 13:01:28;;;;;;;;;;;;;;;6.54;56.01;100838.00;4445120;32;32580;-79
2022/01/26 13:03:57;;;;;;;;;;;;;;;6.68;55.46;100837.16;4445417;32;31002;-79
2022/01/26 13:06:27;;;;;;;;;;;;;;;6.70;55.06;100840.59;4432732;32;34090;-80
2022/01/26 13:08:55;;;;;;;;;;;;;;;6.63;55.65;100839.25;4419438;32;34841;-79
2022/01/26 13:11:33;;;;;;;;;;;;;;;6.56;56.02;100836.16;4432162;32;35241;-80
2022/01/26 13:14:13;;;;;;;;;;;;;;;6.46;55.59;100835.00;4445080;32;32974;-79
2022/01/26 13:16:44;;;;;;;;;;;;;;;6.76;55.32;100834.91;4445024;32;33259;-79
2022/01/26 13:22:25;;;;;;;;;;;;;;;6.67;56.03;100833.69;4445015;32;32815;-79
2022/01/26 13:24:57;;;;;;;;;;;;;;;6.81;55.37;100835.47;4437619;32;31526;-79
2022/01/26 13:41:29;;;;;;;;;;;;;;;7.04;54.84;100830.44;4445012;32;34918;-79
2022/01/26 13:49:58;;;;;;;;;;;;;;;7.10;54.82;100826.56;4447273;32;34410;-79
2022/01/26 14:01:23;;;;;;;;;;;;;;;7.09;54.78;100828.34;4378784;32;32513;-80
2022/01/26 14:03:47;;;;;;;;;;;;;;;6.86;54.85;100828.09;4357558;32;33303;-79
2022/01/26 14:06:14;;;;;;;;;;;;;;;6.67;55.33;100831.06;4369492;32;34089;-80
2022/01/26 14:08:42;;;;;;;;;;;;;;;6.74;54.84;100827.09;4380545;32;33268;-80
2022/01/26 14:11:09;;;;;;;;;;;;;;;6.90;54.92;100833.09;4380219;32;34259;-79
2022/01/26 14:13:37;;;;;;;;;;;;;;;7.01;54.43;100830.63;4351636;32;964710;-80
2022/01/26 14:16:08;;;;;;;;;;;;;;;6.97;54.45;100837.06;4380303;32;34963;-79
2022/01/26 14:18:46;;;;;;;;;;;;;;;6.88;54.84;100835.00;4368788;32;33492;-79
2022/01/26 14:26:31;;;;;;;;;;;;;;;6.83;54.42;100831.81;4379678;32;35174;-79
2022/01/26 14:29:01;;;;;;;;;;;;;;;7.08;54.09;100821.34;4368750;32;33449;-79
2022/01/26 14:40:30;;;;;;;;;;;;;;;6.08;56.84;100823.22;4446532;32;33575;-78
2022/01/26 15:40:18;;;;;;;;;;;;;;;5.72;57.98;100850.94;4449517;32;35446;-78
2022/01/26 15:50:57;;;;;;;;;;;;;;;5.44;58.79;100853.44;4449155;32;35115;-79
2022/01/26 16:07:24;;;;;;;;;;;;;;;6.69;54.63;100865.31;4448811;32;33874;-79
2022/01/26 16:16:31;;;;;;;;;;;;;;;6.34;55.54;100874.53;4461384;32;35774;-78
2022/01/26 16:28:10;;;;;;;;;;;;;;;5.93;57.34;100881.41;4449183;32;34213;-79
2022/01/26 16:35:44;;;;;;;;;;;;;;;6.07;56.79;100868.25;4456398;32;36328;-78
2022/01/26 16:38:45;;;;;;;;;;;;;;;6.20;56.13;100878.00;4450235;32;34177;-79
2022/01/26 17:26:46;;;;;;;;;;;;;;;5.64;57.08;100890.09;4448780;32;32766;-79
2022/01/26 18:13:24;;;;;;;;;;;;;;;5.21;60.26;100903.16;4439055;32;33239;-82
2022/01/26 18:15:56;;;;;;;;;;;;;;;5.35;59.68;100897.97;4428576;32;34317;-82
2022/01/26 18:27:02;;;;;;;;;;;;;;;5.22;60.03;100889.03;4459751;32;35556;-82
2022/01/26 18:32:24;;;;;;;;;;;;;;;4.70;61.47;100895.41;4459688;32;33756;-82
2022/01/26 18:51:37;;;;;;;;;;;;;;;5.09;60.13;100862.47;4457765;32;35258;-78
2022/01/26 18:54:09;;;;;;;;;;;;;;;5.13;59.93;100856.09;4459870;32;33590;-79
2022/01/26 18:56:36;;;;;;;;;;;;;;;5.22;59.61;100842.41;4419522;32;32730;-79
2022/01/26 18:59:05;;;;;;;;;;;;;;;5.11;59.58;100838.66;4445671;32;34903;-79
2022/01/26 19:01:33;;;;;;;;;;;;;;;5.28;59.14;100842.03;4459631;32;34127;-79
2022/01/26 19:04:27;;;;;;;;;;;;;;;5.21;59.04;100839.84;4459343;32;34088;-78
2022/01/26 19:06:56;;;;;;;;;;;;;;;5.21;58.85;100835.44;4445922;32;33948;-79
2022/01/26 19:09:29;;;;;;;;;;;;;;;5.28;58.52;100846.47;4418867;32;36517;-78
2022/01/26 19:11:59;;;;;;;;;;;;;;;5.37;57.93;100852.06;4429636;32;34549;-78
2022/01/26 19:14:34;;;;;;;;;;;;;;;5.40;57.66;100849.28;4444715;32;33186;-78
2022/01/26 19:17:12;;;;;;;;;;;;;;;5.36;57.51;100842.47;4459376;32;35029;-80
2022/01/26 19:25:19;;;;;;;;;;;;;;;5.16;57.60;100842.72;4357824;32;32416;-77
2022/01/26 19:47:28;;;;;;;;;;;;;;;4.62;59.69;100858.06;4276783;33;33645;-79
2022/01/26 19:52:43;;;;;;;;;;;;;;;4.47;59.96;100867.63;4280099;33;35181;-77
2022/01/26 19:55:12;;;;;;;;;;;;;;;4.54;59.94;100874.25;4274455;33;35185;-78
2022/01/26 19:57:41;;;;;;;;;;;;;;;4.78;59.05;100875.62;4275562;33;33788;-77
2022/01/26 20:00:09;;;;;;;;;;;;;;;4.72;58.84;100865.38;4277333;33;34146;-77
2022/01/26 20:02:36;;;;;;;;;;;;;;;4.72;58.72;100869.81;4327997;32;34764;-77
2022/01/26 20:05:11;;;;;;;;;;;;;;;4.42;59.22;100876.72;4351284;32;34552;-77
2022/01/26 20:07:40;;;;;;;;;;;;;;;4.71;58.37;100871.59;4365086;32;32945;-78
2022/01/26 20:10:10;;;;;;;;;;;;;;;4.74;58.03;100858.28;4426822;32;33776;-77
2022/01/26 20:12:48;;;;;;;;;;;;;;;4.76;57.64;100861.66;4416945;32;36140;-78
2022/01/26 20:15:18;;;;;;;;;;;;;;;4.70;57.59;100847.97;4431128;32;35554;-79
2022/01/26 20:17:47;;;;;;;;;;;;;;;4.59;57.68;100852.94;4439680;32;33343;-78
2022/01/26 20:20:15;;;;;;;;;;;;;;;4.41;58.38;100852.12;4428915;32;35087;-77
2022/01/26 20:22:43;;;;;;;;;;;;;;;4.43;58.39;100854.69;4431366;32;34662;-78
2022/01/26 20:25:16;;;;;;;;;;;;;;;4.40;58.34;100854.84;4444638;32;34403;-78
2022/01/26 20:27:45;;;;;;;;;;;;;;;4.43;58.21;100850.25;4446137;32;33354;-78
2022/01/26 20:30:18;;;;;;;;;;;;;;;4.41;57.94;100846.87;4445331;32;33750;-78
2022/01/26 20:32:46;;;;;;;;;;;;;;;4.32;57.92;100846.47;4442299;32;35117;-78
2022/01/26 20:35:15;;;;;;;;;;;;;;;4.36;57.86;100848.88;4446544;32;34395;-77
2022/01/26 20:37:48;;;;;;;;;;;;;;;4.21;58.27;100847.06;4461249;32;34005;-77
2022/01/26 20:40:19;;;;;;;;;;;;;;;4.29;57.94;100842.25;4461437;32;34956;-78
2022/01/26 20:42:47;;;;;;;;;;;;;;;4.23;58.16;100852.22;4433875;32;35277;-78
2022/01/26 20:45:21;;;;;;;;;;;;;;;4.27;58.05;100856.41;4431054;32;34719;-78
2022/01/26 20:47:50;;;;;;;;;;;;;;;4.25;58.26;100855.66;4458120;32;32850;-76
2022/01/26 20:50:18;;;;;;;;;;;;;;;4.21;58.42;100859.34;4443155;32;34338;-77
2022/01/26 20:52:49;;;;;;;;;;;;;;;4.25;58.48;100856.50;4445930;32;35198;-78
2022/01/26 20:55:17;;;;;;;;;;;;;;;4.27;58.48;100856.41;4445541;32;35173;-78
2022/01/26 20:57:45;;;;;;;;;;;;;;;4.25;58.58;100859.12;4445088;32;31978;-78
2022/01/26 21:00:16;;;;;;;;;;;;;;;4.22;58.72;100864.56;4458464;32;33849;-78
2022/01/26 21:02:49;;;;;;;;;;;;;;;4.31;58.57;100857.94;4459649;32;34283;-79
2022/01/26 21:05:18;;;;;;;;;;;;;;;4.37;58.49;100862.91;4460539;32;34711;-79
2022/01/26 21:07:45;;;;;;;;;;;;;;;4.16;59.41;100858.75;4445958;32;32538;-78
2022/01/26 21:10:13;;;;;;;;;;;;;;;4.26;59.45;100858.19;4420653;32;34208;-78
2022/01/26 21:15:37;;;;;;;;;;;;;;;4.48;58.97;100853.53;4524489;26;36062;-86
2022/01/26 21:18:04;;;;;;;;;;;;;;;4.55;58.93;100854.03;4442142;32;33577;-82
2022/01/26 21:20:32;;;;;;;;;;;;;;;4.32;59.73;100855.25;4444138;32;34095;-83
2022/01/26 21:22:59;;;;;;;;;;;;;;;4.38;59.93;100865.47;4443857;32;34374;-83
2022/01/26 21:25:27;;;;;;;;;;;;;;;4.32;60.29;100857.00;4434403;32;34096;-85
2022/01/26 21:27:54;;;;;;;;;;;;;;;4.47;59.89;100851.81;4446710;32;33452;-84
2022/01/26 21:30:24;;;;;;;;;;;;;;;4.45;60.12;100847.56;4429092;32;34187;-82
2022/01/26 21:32:52;;;;;;;;;;;;;;;4.55;59.71;100843.50;4434615;32;35382;-85
2022/01/26 21:35:19;;;;;;;;;;;;;;;4.57;59.68;100841.63;4445121;32;34371;-84
2022/01/26 21:37:47;;;;;;;;;;;;;;;4.62;59.49;100842.25;4446516;32;32983;-84
2022/01/26 21:40:15;;;;;;;;;;;;;;;3.92;61.74;100833.66;4459462;32;35825;-82
2022/01/26 21:42:43;;;;;;;;;;;;;;;4.35;60.63;100831.38;4444079;32;35516;-86
2022/01/26 21:45:11;;;;;;;;;;;;;;;4.62;59.85;100827.28;4431156;32;34235;-82
2022/01/26 21:47:39;;;;;;;;;;;;;;;4.33;60.89;100830.59;4446560;32;32748;-84
2022/01/26 21:50:07;;;;;;;;;;;;;;;4.27;61.19;100830.91;4430886;32;34057;-85
2022/01/26 21:52:35;;;;;;;;;;;;;;;4.34;60.96;100834.09;4408884;32;33809;-83